createdAt,value
2022-10-30T00:01:08.655Z,5.77
2022-10-30T00:03:36.925Z,4.43
2022-10-30T00:06:07.225Z,5.43
2022-10-30T00:08:36.910Z,5.50
2022-10-30T00:11:10.673Z,6.17
2022-10-30T00:13:39.553Z,5.83
2022-10-30T00:16:10.112Z,6.80
2022-10-30T00:18:39.498Z,6.60
2022-10-30T00:21:10.190Z,5.60
2022-10-30T00:23:46.279Z,5.77
2022-10-30T00:26:14.289Z,7.93
2022-10-30T00:28:42.714Z,6.03
2022-10-30T00:31:11.533Z,6.50
2022-10-30T00:33:39.517Z,6.00
2022-10-30T00:36:08.468Z,6.53
2022-10-30T00:38:36.803Z,7.43
2022-10-30T00:41:08.792Z,5.63
2022-10-30T00:43:38.398Z,6.47
2022-10-30T00:46:16.569Z,6.13
2022-10-30T00:48:46.741Z,6.73
2022-10-30T00:51:16.134Z,7.37
2022-10-30T00:53:44.991Z,7.33
2022-10-30T00:56:17.339Z,8.37
2022-10-30T00:58:50.898Z,9.87
2022-10-30T01:01:23.515Z,8.33
2022-10-30T01:03:57.097Z,8.33
2022-10-30T01:06:26.361Z,8.00
2022-10-30T01:08:59.945Z,6.60
2022-10-30T01:11:30.211Z,10.63
2022-10-30T01:14:02.872Z,13.33
2022-10-30T01:17:03.601Z,6.93
2022-10-30T01:19:43.041Z,8.30
2022-10-30T01:22:25.386Z,7.80
2022-10-30T01:25:03.210Z,7.07
2022-10-30T01:27:47.675Z,5.70
2022-10-30T01:30:30.626Z,6.20
2022-10-30T01:33:13.200Z,6.73
2022-10-30T01:35:48.403Z,6.23
2022-10-30T01:38:23.582Z,6.67
2022-10-30T01:40:52.483Z,5.60
2022-10-30T01:43:22.177Z,6.83
2022-10-30T01:46:31.574Z,6.13
2022-10-30T01:49:12.372Z,5.93
2022-10-30T01:51:53.069Z,6.00
2022-10-30T01:54:31.504Z,7.60
2022-10-30T01:57:06.108Z,5.47
2022-10-30T01:59:40.986Z,7.87
2022-10-30T02:02:10.495Z,6.90
2022-10-30T02:04:39.837Z,6.43
2022-10-30T02:07:10.138Z,5.90
2022-10-30T02:09:39.351Z,9.90
2022-10-30T02:12:08.769Z,6.77
2022-10-30T02:14:43.236Z,6.27
2022-10-30T02:17:14.111Z,8.47
2022-10-30T02:19:42.995Z,7.47
2022-10-30T02:22:13.258Z,10.33
2022-10-30T02:24:41.731Z,7.87
2022-10-30T02:27:10.474Z,6.53
2022-10-30T02:29:38.861Z,7.93
2022-10-30T02:32:07.162Z,11.67
2022-10-30T02:34:35.586Z,9.83
2022-10-30T02:37:03.921Z,9.80
2022-10-30T02:39:33.624Z,9.80
2022-10-30T02:42:03.199Z,7.90
2022-10-30T02:44:31.375Z,8.93
2022-10-30T02:47:01.117Z,8.00
2022-10-30T02:49:30.226Z,11.00
2022-10-30T02:51:58.852Z,8.57
2022-10-30T02:54:26.924Z,10.60
2022-10-30T02:56:56.716Z,8.77
2022-10-30T02:59:25.274Z,9.53
2022-10-30T03:01:53.734Z,12.13
2022-10-30T03:04:23.354Z,9.23
2022-10-30T03:06:51.382Z,9.37
2022-10-30T03:09:19.842Z,11.20
2022-10-30T03:11:48.133Z,9.50
2022-10-30T03:14:19.869Z,13.77
2022-10-30T03:16:48.512Z,11.83
2022-10-30T03:19:17.150Z,10.07
2022-10-30T03:21:45.145Z,8.30
2022-10-30T03:24:13.234Z,8.07
2022-10-30T03:26:41.278Z,10.43
2022-10-30T03:29:09.761Z,11.23
2022-10-30T03:31:39.531Z,8.50
2022-10-30T03:34:07.642Z,10.20
2022-10-30T03:36:36.210Z,13.40
2022-10-30T03:39:04.792Z,8.67
2022-10-30T03:41:33.995Z,12.57
2022-10-30T03:44:02.574Z,7.40
2022-10-30T03:46:31.982Z,12.37
2022-10-30T03:49:01.902Z,11.83
2022-10-30T03:51:29.988Z,11.43
2022-10-30T03:53:58.339Z,11.43
2022-10-30T03:56:26.738Z,11.70
2022-10-30T03:58:54.695Z,11.10
2022-10-30T04:01:23.279Z,8.70
2022-10-30T04:03:51.455Z,11.40
2022-10-30T04:06:21.446Z,11.77
2022-10-30T04:08:49.852Z,11.47
2022-10-30T04:11:18.221Z,15.17
2022-10-30T04:13:46.962Z,9.37
2022-10-30T04:16:15.136Z,16.03
2022-10-30T04:18:44.576Z,14.60
2022-10-30T04:21:12.509Z,14.43
2022-10-30T04:23:41.956Z,22.00
2022-10-30T04:26:10.206Z,24.63
2022-10-30T04:28:39.796Z,23.57
2022-10-30T04:31:07.926Z,25.83
2022-10-30T04:33:36.044Z,22.70
2022-10-30T04:36:04.592Z,21.03
2022-10-30T04:38:33.312Z,20.23
2022-10-30T04:41:03.330Z,20.13
2022-10-30T04:43:33.087Z,22.63
2022-10-30T04:46:01.473Z,18.70
2022-10-30T04:48:30.251Z,16.90
2022-10-30T04:50:59.627Z,22.00
2022-10-30T04:53:27.919Z,20.80
2022-10-30T04:55:56.875Z,18.40
2022-10-30T04:58:26.578Z,18.43
2022-10-30T05:00:58.985Z,20.97
2022-10-30T05:03:30.572Z,14.13
2022-10-30T05:06:01.082Z,14.90
2022-10-30T05:08:30.769Z,16.47
2022-10-30T05:10:58.975Z,18.43
2022-10-30T05:13:31.414Z,16.50
2022-10-30T05:16:00.507Z,25.37
2022-10-30T05:18:28.982Z,14.93
2022-10-30T05:20:57.045Z,14.00
2022-10-30T05:23:25.251Z,15.87
2022-10-30T05:25:53.392Z,14.57
2022-10-30T05:28:22.363Z,18.00
2022-10-30T05:30:54.408Z,12.10
2022-10-30T05:33:23.657Z,12.53
2022-10-30T05:35:54.830Z,14.70
2022-10-30T05:38:25.235Z,13.70
2022-10-30T05:40:53.937Z,16.03
2022-10-30T05:43:22.021Z,14.07
2022-10-30T05:45:51.702Z,10.10
2022-10-30T05:48:19.695Z,12.10
2022-10-30T05:50:49.180Z,10.87
2022-10-30T05:53:17.227Z,12.20
2022-10-30T05:55:45.568Z,16.57
2022-10-30T05:58:13.764Z,17.07
2022-10-30T06:00:44.674Z,16.47
2022-10-30T06:03:14.387Z,15.63
2022-10-30T06:05:52.946Z,12.33
2022-10-30T06:08:21.176Z,12.27
2022-10-30T06:10:49.249Z,11.87
2022-10-30T06:13:17.597Z,14.27
2022-10-30T06:15:46.868Z,13.37
2022-10-30T06:18:17.756Z,10.10
2022-10-30T06:20:48.394Z,15.60
2022-10-30T06:23:16.710Z,12.37
2022-10-30T06:25:44.966Z,11.17
2022-10-30T06:28:14.960Z,9.07
2022-10-30T06:30:45.756Z,7.87
2022-10-30T06:33:19.359Z,14.83
2022-10-30T06:35:51.566Z,11.67
2022-10-30T06:38:19.982Z,28.57
2022-10-30T06:40:50.254Z,17.60
2022-10-30T06:43:19.295Z,11.37
2022-10-30T06:45:47.234Z,12.00
2022-10-30T06:48:15.230Z,12.17
2022-10-30T06:50:43.372Z,11.80
2022-10-30T06:53:12.763Z,14.73
2022-10-30T06:55:40.955Z,12.40
2022-10-30T06:58:09.315Z,12.37
2022-10-30T07:00:37.665Z,11.00
2022-10-30T07:03:08.041Z,11.00
2022-10-30T07:05:36.057Z,13.00
2022-10-30T07:08:04.085Z,14.93
2022-10-30T07:10:34.217Z,16.30
2022-10-30T07:13:03.024Z,11.73
2022-10-30T07:15:32.447Z,11.23
2022-10-30T07:18:04.551Z,11.20
2022-10-30T07:20:34.687Z,16.13
2022-10-30T07:23:04.079Z,10.93
2022-10-30T07:25:33.575Z,11.87
2022-10-30T07:28:03.122Z,11.60
2022-10-30T07:30:31.457Z,13.60
2022-10-30T07:33:01.751Z,13.93
2022-10-30T07:35:32.451Z,16.13
2022-10-30T07:38:04.649Z,12.57
2022-10-30T07:40:34.464Z,11.20
2022-10-30T07:43:04.706Z,17.50
2022-10-30T07:45:33.970Z,15.20
2022-10-30T07:48:02.376Z,21.07
2022-10-30T07:50:31.173Z,15.33
2022-10-30T07:52:59.600Z,15.53
2022-10-30T07:55:27.894Z,16.57
2022-10-30T07:57:58.401Z,12.83
2022-10-30T08:00:26.971Z,14.37
2022-10-30T08:02:58.647Z,15.90
2022-10-30T08:05:29.118Z,18.27
2022-10-30T08:07:59.540Z,15.17
2022-10-30T08:10:28.114Z,14.70
2022-10-30T08:12:59.877Z,16.77
2022-10-30T08:15:28.484Z,13.33
2022-10-30T08:17:56.783Z,12.80
2022-10-30T08:20:26.765Z,13.27
2022-10-30T08:22:57.442Z,14.00
2022-10-30T08:25:28.993Z,15.33
2022-10-30T08:28:00.324Z,15.73
2022-10-30T08:30:30.253Z,13.57
2022-10-30T08:33:00.314Z,14.23
2022-10-30T08:35:29.774Z,18.90
2022-10-30T08:37:58.639Z,13.77
2022-10-30T08:40:28.079Z,14.23
2022-10-30T08:43:00.248Z,11.20
2022-10-30T08:45:31.066Z,15.47
2022-10-30T08:48:01.151Z,13.77
2022-10-30T08:50:29.900Z,14.20
2022-10-30T08:52:58.248Z,16.03
2022-10-30T08:55:26.454Z,16.47
2022-10-30T08:57:54.440Z,12.07
2022-10-30T09:00:24.644Z,13.53
2022-10-30T09:02:55.787Z,17.97
2022-10-30T09:05:24.088Z,12.53
2022-10-30T09:07:58.141Z,11.93
2022-10-30T09:10:26.933Z,13.40
2022-10-30T09:13:08.877Z,15.10
2022-10-30T09:15:38.676Z,14.77
2022-10-30T09:18:07.371Z,13.10
2022-10-30T09:20:35.480Z,14.73
2022-10-30T09:23:03.989Z,13.10
2022-10-30T09:25:34.370Z,15.97
2022-10-30T09:28:02.950Z,14.90
2022-10-30T09:30:31.379Z,13.87
2022-10-30T09:33:02.884Z,15.40
2022-10-30T09:35:33.180Z,15.70
2022-10-30T09:38:01.687Z,19.20
2022-10-30T09:40:43.758Z,13.47
2022-10-30T09:43:26.162Z,18.27
2022-10-30T09:46:11.931Z,15.87
2022-10-30T09:49:13.653Z,15.93
2022-10-30T09:52:18.459Z,14.87
2022-10-30T09:54:57.193Z,14.93
2022-10-30T09:57:37.771Z,19.23
2022-10-30T10:00:11.279Z,18.20
2022-10-30T10:02:49.233Z,15.93
2022-10-30T10:05:22.455Z,16.63
2022-10-30T10:07:56.468Z,14.77
2022-10-30T10:10:29.492Z,14.83
2022-10-30T10:13:01.133Z,15.57
2022-10-30T10:15:39.416Z,16.17
2022-10-30T10:18:18.095Z,19.17
2022-10-30T10:20:52.072Z,15.30
2022-10-30T10:23:28.602Z,13.27
2022-10-30T10:26:02.784Z,15.90
2022-10-30T10:28:51.092Z,12.87
2022-10-30T10:31:30.953Z,14.13
2022-10-30T10:34:17.764Z,15.27
2022-10-30T10:36:55.013Z,15.93
2022-10-30T10:39:39.987Z,11.33
2022-10-30T10:42:22.473Z,19.57
2022-10-30T10:45:13.763Z,12.10
2022-10-30T10:48:04.634Z,9.40
2022-10-30T10:50:35.832Z,11.23
2022-10-30T10:53:12.537Z,11.27
2022-10-30T10:55:45.691Z,10.60
2022-10-30T10:58:23.132Z,11.03
2022-10-30T11:00:52.998Z,7.57
2022-10-30T11:03:24.510Z,14.00
2022-10-30T11:05:56.087Z,9.20
2022-10-30T11:08:28.584Z,9.17
2022-10-30T11:11:01.051Z,7.70
2022-10-30T11:13:32.994Z,8.47
2022-10-30T11:16:08.234Z,5.83
2022-10-30T11:18:37.647Z,6.17
2022-10-30T11:21:16.919Z,7.97
2022-10-30T11:23:46.637Z,10.77
2022-10-30T11:26:32.581Z,9.77
2022-10-30T11:29:05.707Z,7.50
2022-10-30T11:31:38.219Z,9.17
2022-10-30T11:34:32.051Z,5.43
2022-10-30T11:37:00.547Z,8.70
2022-10-30T11:39:30.517Z,6.47
2022-10-30T11:42:04.732Z,6.87
2022-10-30T11:44:37.383Z,7.60
2022-10-30T11:47:07.128Z,5.57
2022-10-30T11:49:44.937Z,7.93
2022-10-30T11:52:16.076Z,8.47
2022-10-30T11:54:49.609Z,8.80
2022-10-30T11:57:25.101Z,7.93
2022-10-30T12:00:00.719Z,6.23
2022-10-30T12:02:42.789Z,6.53
2022-10-30T12:05:31.941Z,7.47
2022-10-30T12:08:18.767Z,7.97
2022-10-30T12:10:48.759Z,5.10
2022-10-30T12:13:20.249Z,4.63
2022-10-30T12:15:49.966Z,8.60
2022-10-30T12:18:22.899Z,5.03
2022-10-30T12:20:54.597Z,7.93
2022-10-30T12:23:26.096Z,4.03
2022-10-30T12:25:55.801Z,6.57
2022-10-30T12:28:28.229Z,6.00
2022-10-30T12:31:00.606Z,12.57
2022-10-30T12:33:36.105Z,7.57
2022-10-30T12:36:11.837Z,6.57
2022-10-30T12:38:45.202Z,7.03
2022-10-30T12:41:20.088Z,6.43
2022-10-30T12:44:00.261Z,4.77
2022-10-30T12:46:35.138Z,3.25
2022-10-30T12:49:10.894Z,4.57
2022-10-30T12:51:49.794Z,4.35
2022-10-30T12:54:27.877Z,3.95
2022-10-30T12:57:08.758Z,5.10
2022-10-30T12:59:47.916Z,7.28
2022-10-30T13:02:27.278Z,3.17
2022-10-30T13:05:03.856Z,4.63
2022-10-30T13:07:40.254Z,3.53
2022-10-30T13:10:23.284Z,2.58
2022-10-30T13:12:54.775Z,4.20
2022-10-30T13:15:29.808Z,4.28
2022-10-30T13:18:01.365Z,10.57
2022-10-30T13:20:32.497Z,13.60
2022-10-30T13:23:11.945Z,13.73
2022-10-30T13:25:49.302Z,5.93
2022-10-30T13:28:25.243Z,5.97
2022-10-30T13:31:03.229Z,4.15
2022-10-30T13:33:42.257Z,3.22
2022-10-30T13:36:16.928Z,4.18
2022-10-30T13:38:53.662Z,3.17
2022-10-30T13:41:33.756Z,3.42
2022-10-30T13:44:11.531Z,4.75
2022-10-30T13:47:01.082Z,2.15
2022-10-30T13:49:41.546Z,3.30
2022-10-30T13:52:16.357Z,4.43
2022-10-30T13:54:49.716Z,1.95
2022-10-30T13:57:25.261Z,3.50
2022-10-30T14:00:07.976Z,4.55
2022-10-30T14:02:52.228Z,3.83
2022-10-30T14:05:33.025Z,2.10
2022-10-30T14:08:08.384Z,4.18
2022-10-30T14:10:46.311Z,5.20
2022-10-30T14:13:27.237Z,4.35
2022-10-30T14:15:58.287Z,6.70
2022-10-30T14:18:34.190Z,2.20
2022-10-30T14:21:39.075Z,6.25
2022-10-30T14:24:19.685Z,5.20
2022-10-30T14:27:11.513Z,5.40
2022-10-30T14:29:49.382Z,6.00
2022-10-30T14:32:51.117Z,4.10
2022-10-30T14:35:40.810Z,5.32
2022-10-30T14:38:37.165Z,6.47
2022-10-30T14:41:31.831Z,6.53
2022-10-30T14:44:21.740Z,5.45
2022-10-30T14:47:04.641Z,5.40
2022-10-30T14:49:44.750Z,9.70
2022-10-30T14:52:23.577Z,4.23
2022-10-30T14:54:59.567Z,4.20
2022-10-30T14:57:48.397Z,4.93
2022-10-30T15:00:42.640Z,5.67
2022-10-30T15:03:19.463Z,6.53
2022-10-30T15:05:56.372Z,8.70
2022-10-30T15:08:42.981Z,10.63
2022-10-30T15:11:44.425Z,6.47
2022-10-30T15:14:21.699Z,4.63
2022-10-30T15:17:00.967Z,4.07
2022-10-30T15:19:31.191Z,7.23
2022-10-30T15:21:59.540Z,4.70
2022-10-30T15:24:32.623Z,4.03
2022-10-30T15:27:02.533Z,8.23
2022-10-30T15:29:33.650Z,7.40
2022-10-30T15:32:02.952Z,4.93
2022-10-30T15:34:33.245Z,9.13
2022-10-30T15:37:11.463Z,5.53
2022-10-30T15:39:41.489Z,8.90
2022-10-30T15:42:12.065Z,7.53
2022-10-30T15:44:43.240Z,5.10
2022-10-30T15:47:16.970Z,6.27
2022-10-30T15:49:51.263Z,3.87
2022-10-30T15:52:22.824Z,5.93
2022-10-30T15:54:58.922Z,8.23
2022-10-30T15:57:57.363Z,6.77
2022-10-30T16:00:22.831Z,5.37
2022-10-30T16:03:01.576Z,5.47
2022-10-30T16:05:31.727Z,7.27
2022-10-30T16:08:05.911Z,6.27
2022-10-30T16:10:39.499Z,7.53
2022-10-30T16:13:07.653Z,6.73
2022-10-30T16:15:39.905Z,8.77
2022-10-30T16:18:14.737Z,11.13
2022-10-30T16:20:45.646Z,4.00
2022-10-30T16:23:15.277Z,4.87
2022-10-30T16:25:47.479Z,7.67
2022-10-30T16:28:31.753Z,9.73
2022-10-30T16:31:03.152Z,7.33
2022-10-30T16:33:33.683Z,7.03
2022-10-30T16:36:09.081Z,4.20
2022-10-30T16:38:40.669Z,5.00
2022-10-30T16:41:14.108Z,5.73
2022-10-30T16:43:48.478Z,5.17
2022-10-30T16:46:39.751Z,5.10
2022-10-30T16:49:15.337Z,7.33
2022-10-30T16:51:44.427Z,5.73
2022-10-30T16:54:24.873Z,7.53
2022-10-30T16:56:57.086Z,7.57
2022-10-30T16:59:37.326Z,8.73
2022-10-30T17:02:15.207Z,8.77
2022-10-30T17:04:51.319Z,7.00
2022-10-30T17:07:26.693Z,6.70
2022-10-30T17:09:56.925Z,7.30
2022-10-30T17:12:27.680Z,5.23
2022-10-30T17:14:56.865Z,6.47
2022-10-30T17:17:31.252Z,7.00
2022-10-30T17:20:05.191Z,4.33
2022-10-30T17:22:34.274Z,8.50
2022-10-30T17:25:02.888Z,8.53
2022-10-30T17:27:43.572Z,5.73
2022-10-30T17:30:38.326Z,7.27
2022-10-30T17:33:28.319Z,5.37
2022-10-30T17:35:56.194Z,6.90
2022-10-30T17:38:24.292Z,7.63
2022-10-30T17:40:52.754Z,7.13
2022-10-30T17:43:27.391Z,9.17
2022-10-30T17:45:55.920Z,11.77
2022-10-30T17:48:26.795Z,6.20
2022-10-30T17:50:56.066Z,5.20
2022-10-30T17:53:26.003Z,8.47
2022-10-30T17:56:00.987Z,5.70
2022-10-30T17:58:31.147Z,5.80
2022-10-30T18:00:59.948Z,5.73
2022-10-30T18:03:28.511Z,7.33
2022-10-30T18:05:58.864Z,5.83
2022-10-30T18:08:27.017Z,7.93
2022-10-30T18:10:54.979Z,6.47
2022-10-30T18:13:23.130Z,8.33
2022-10-30T18:15:57.148Z,8.63
2022-10-30T18:18:25.043Z,8.93
2022-10-30T18:20:52.991Z,5.73
2022-10-30T18:26:16.025Z,7.17
2022-10-30T18:28:45.231Z,4.63
2022-10-30T18:31:16.176Z,18.87
2022-10-30T18:33:45.246Z,9.73
2022-10-30T18:36:15.323Z,8.93
2022-10-30T18:38:47.117Z,8.73
2022-10-30T18:41:17.182Z,13.43
2022-10-30T18:43:47.215Z,9.33
2022-10-30T18:46:17.668Z,4.60
2022-10-30T18:48:46.389Z,14.37
2022-10-30T18:51:19.301Z,6.47
2022-10-30T18:53:52.477Z,5.43
2022-10-30T18:56:21.806Z,6.47
2022-10-30T18:58:53.478Z,5.40
2022-10-30T19:01:27.037Z,10.03
2022-10-30T19:03:55.460Z,6.57
2022-10-30T19:06:28.597Z,4.40
2022-10-30T19:08:56.721Z,7.37
2022-10-30T19:11:25.589Z,5.33
2022-10-30T19:13:54.308Z,5.37
2022-10-30T19:16:26.064Z,4.63
2022-10-30T19:18:56.833Z,6.10
2022-10-30T19:21:26.703Z,3.67
2022-10-30T19:23:55.949Z,3.53
2022-10-30T19:26:24.018Z,3.57
2022-10-30T19:28:52.375Z,5.87
2022-10-30T19:31:21.125Z,6.07
2022-10-30T19:33:54.484Z,3.77
2022-10-30T19:36:33.943Z,3.97
2022-10-30T19:39:08.582Z,4.87
2022-10-30T19:41:38.955Z,3.77
2022-10-30T19:44:08.065Z,5.47
2022-10-30T19:46:36.181Z,4.03
2022-10-30T19:49:17.887Z,5.77
2022-10-30T19:51:49.016Z,3.63
2022-10-30T19:54:17.313Z,3.27
2022-10-30T19:56:45.406Z,6.50
2022-10-30T19:59:15.802Z,5.07
2022-10-30T20:01:44.994Z,4.43
2022-10-30T20:04:13.340Z,4.37
2022-10-30T20:06:41.521Z,3.93
2022-10-30T20:09:12.835Z,4.50
2022-10-30T20:11:42.090Z,5.50
2022-10-30T20:14:10.043Z,5.23
2022-10-30T20:16:38.376Z,4.40
2022-10-30T20:19:29.384Z,4.67
2022-10-30T20:21:57.374Z,4.37
2022-10-30T20:24:26.887Z,5.07
2022-10-30T20:26:57.589Z,3.93
2022-10-30T20:29:26.128Z,3.10
2022-10-30T20:31:54.193Z,4.90
2022-10-30T20:34:22.161Z,3.90
2022-10-30T20:36:50.643Z,3.10
2022-10-30T20:39:18.648Z,4.43
2022-10-30T20:41:49.124Z,5.63
2022-10-30T20:44:17.082Z,4.77
2022-10-30T20:46:45.447Z,5.73
2022-10-30T20:49:17.487Z,5.37
2022-10-30T20:51:46.402Z,3.93
2022-10-30T20:54:14.686Z,6.00
2022-10-30T20:56:42.582Z,3.53
2022-10-30T20:59:12.084Z,5.33
2022-10-30T21:01:40.192Z,3.87
2022-10-30T21:04:08.691Z,3.07
2022-10-30T21:06:36.843Z,4.53
2022-10-30T21:09:05.120Z,2.70
2022-10-30T21:11:33.325Z,3.60
2022-10-30T21:14:01.457Z,3.37
2022-10-30T21:16:31.223Z,4.47
2022-10-30T21:18:59.783Z,3.13
2022-10-30T21:21:28.175Z,3.77
2022-10-30T21:23:57.076Z,4.73
2022-10-30T21:26:25.061Z,3.33
2022-10-30T21:28:53.347Z,5.00
2022-10-30T21:31:21.642Z,4.17
2022-10-30T21:33:51.188Z,4.73
2022-10-30T21:36:20.973Z,3.67
2022-10-30T21:38:49.024Z,5.40
2022-10-30T21:41:19.729Z,5.07
2022-10-30T21:43:53.764Z,3.80
2022-10-30T21:46:23.494Z,4.27
2022-10-30T21:48:53.553Z,3.83
2022-10-30T21:51:23.549Z,2.57
2022-10-30T21:53:51.984Z,4.27
2022-10-30T21:56:22.807Z,4.10
2022-10-30T21:58:51.693Z,4.07
2022-10-30T22:01:24.030Z,5.53
2022-10-30T22:03:53.632Z,4.33
2022-10-30T22:06:23.484Z,3.87
2022-10-30T22:08:53.365Z,6.13
2022-10-30T22:11:24.462Z,3.73
2022-10-30T22:13:57.260Z,4.90
2022-10-30T22:16:26.585Z,2.93
2022-10-30T22:18:58.093Z,4.87
2022-10-30T22:21:26.612Z,5.90
2022-10-30T22:23:55.566Z,4.87
2022-10-30T22:26:25.291Z,3.60
2022-10-30T22:28:54.909Z,5.33
2022-10-30T22:31:24.994Z,3.03
2022-10-30T22:33:53.822Z,5.10
2022-10-30T22:36:26.933Z,7.30
2022-10-30T22:38:57.545Z,3.93
2022-10-30T22:41:27.837Z,4.80
2022-10-30T22:43:59.461Z,4.27
2022-10-30T22:46:29.335Z,7.00
2022-10-30T22:48:58.084Z,3.57
2022-10-30T22:51:28.037Z,6.03
2022-10-30T22:53:57.982Z,5.13
2022-10-30T22:56:28.656Z,5.37
2022-10-30T22:58:57.242Z,4.17
2022-10-30T23:01:27.520Z,4.60
2022-10-30T23:03:58.084Z,4.70
2022-10-30T23:06:30.091Z,5.27
2022-10-30T23:08:59.626Z,3.30
2022-10-30T23:11:29.155Z,4.43
2022-10-30T23:13:58.111Z,5.40
2022-10-30T23:16:27.663Z,7.43
2022-10-30T23:18:58.284Z,4.47
2022-10-30T23:21:29.416Z,4.33
2022-10-30T23:23:58.291Z,3.00
2022-10-30T23:26:27.761Z,4.00
2022-10-30T23:28:57.390Z,4.60
2022-10-30T23:31:29.009Z,4.30
2022-10-30T23:34:00.256Z,10.43
2022-10-30T23:36:30.294Z,9.87
2022-10-30T23:39:00.551Z,6.17
2022-10-30T23:41:30.712Z,8.50
2022-10-30T23:44:00.397Z,8.10
2022-10-30T23:46:29.559Z,7.90
2022-10-30T23:48:58.059Z,6.90
2022-10-30T23:51:26.437Z,8.63
2022-10-30T23:53:56.073Z,6.20
2022-10-30T23:56:26.887Z,5.30
2022-10-30T23:58:55.045Z,9.97
